createdAt,value
2017-11-06T00:02:00.772Z,8.17
2017-11-06T00:04:28.341Z,7.60
2017-11-06T00:06:56.655Z,7.80
2017-11-06T00:09:24.209Z,7.60
2017-11-06T00:11:51.758Z,7.90
2017-11-06T00:14:19.337Z,6.90
2017-11-06T00:16:46.886Z,6.80
2017-11-06T00:19:14.586Z,6.77
2017-11-06T00:21:42.138Z,6.80
2017-11-06T00:24:09.682Z,7.10
2017-11-06T00:26:37.258Z,8.13
2017-11-06T00:29:04.804Z,7.23
2017-11-06T00:31:32.374Z,6.93
2017-11-06T00:33:59.941Z,7.57
2017-11-06T00:36:27.541Z,7.43
2017-11-06T00:38:55.867Z,6.40
2017-11-06T00:41:23.427Z,7.37
2017-11-06T00:43:51.000Z,6.97
2017-11-06T00:46:18.549Z,6.60
2017-11-06T00:48:46.113Z,7.10
2017-11-06T00:51:13.674Z,7.10
2017-11-06T00:53:41.236Z,7.18
2017-11-06T00:56:08.890Z,7.00
2017-11-06T00:58:36.447Z,6.40
2017-11-06T01:01:04.782Z,6.47
2017-11-06T01:03:33.106Z,6.85
2017-11-06T01:06:00.658Z,6.50
2017-11-06T01:08:28.210Z,6.80
2017-11-06T01:10:55.766Z,5.83
2017-11-06T01:13:23.322Z,6.33
2017-11-06T01:15:50.877Z,6.60
2017-11-06T01:18:22.461Z,6.70
2017-11-06T01:20:50.020Z,6.40
2017-11-06T01:23:17.582Z,6.75
2017-11-06T01:25:45.138Z,6.18
2017-11-06T01:28:12.696Z,6.78
2017-11-06T01:30:40.260Z,6.40
2017-11-06T01:33:07.797Z,6.78
2017-11-06T01:35:36.141Z,6.87
2017-11-06T01:38:03.708Z,6.40
2017-11-06T01:40:31.266Z,6.85
2017-11-06T01:42:58.818Z,7.47
2017-11-06T01:45:26.461Z,6.85
2017-11-06T01:47:54.015Z,7.57
2017-11-06T01:50:21.590Z,7.35
2017-11-06T01:52:49.163Z,6.57
2017-11-06T01:55:16.806Z,7.27
2017-11-06T01:57:44.392Z,7.62
2017-11-06T02:00:11.936Z,7.37
2017-11-06T02:02:39.501Z,7.45
2017-11-06T02:05:07.052Z,6.90
2017-11-06T02:07:34.586Z,7.20
2017-11-06T02:10:02.138Z,6.57
2017-11-06T02:12:29.712Z,6.70
2017-11-06T02:14:57.265Z,6.57
2017-11-06T02:17:24.841Z,6.70
2017-11-06T02:19:52.428Z,7.07
2017-11-06T02:22:19.999Z,6.80
2017-11-06T02:24:47.566Z,7.25
2017-11-06T02:27:15.132Z,7.10
2017-11-06T02:29:42.718Z,6.85
2017-11-06T02:32:10.276Z,7.15
2017-11-06T02:34:38.586Z,7.32
2017-11-06T02:37:06.185Z,6.80
2017-11-06T02:39:33.749Z,7.15
2017-11-06T02:42:01.339Z,6.70
2017-11-06T02:44:28.883Z,6.50
2017-11-06T02:46:57.216Z,6.70
2017-11-06T02:49:24.797Z,7.28
2017-11-06T02:51:52.360Z,6.67
2017-11-06T02:54:19.899Z,6.60
2017-11-06T02:56:47.471Z,6.87
2017-11-06T02:59:15.877Z,6.60
2017-11-06T03:01:44.186Z,5.97
2017-11-06T03:04:11.744Z,6.50
2017-11-06T03:06:39.296Z,6.43
2017-11-06T03:09:06.861Z,6.50
2017-11-06T03:11:35.187Z,6.70
2017-11-06T03:14:02.751Z,6.63
2017-11-06T03:16:30.694Z,5.87
2017-11-06T03:18:58.269Z,6.32
2017-11-06T03:21:25.858Z,6.25
2017-11-06T03:23:53.422Z,6.50
2017-11-06T03:26:21.753Z,6.22
2017-11-06T03:28:49.277Z,6.50
2017-11-06T03:31:16.834Z,6.95
2017-11-06T03:33:45.318Z,6.93
2017-11-06T03:36:12.893Z,6.95
2017-11-06T03:38:40.444Z,6.72
2017-11-06T03:41:08.004Z,6.60
2017-11-06T03:43:35.567Z,7.30
2017-11-06T03:46:03.133Z,8.65
2017-11-06T03:48:30.689Z,7.07
2017-11-06T03:50:58.226Z,6.30
2017-11-06T03:53:26.556Z,7.35
2017-11-06T03:55:54.171Z,7.43
2017-11-06T03:58:22.508Z,6.50
2017-11-06T04:00:50.072Z,6.60
2017-11-06T04:03:17.635Z,6.75
2017-11-06T04:05:45.201Z,6.28
2017-11-06T04:08:12.790Z,6.32
2017-11-06T04:10:41.120Z,6.47
2017-11-06T04:13:08.675Z,6.80
2017-11-06T04:15:36.986Z,6.93
2017-11-06T04:18:04.554Z,6.22
2017-11-06T04:20:32.908Z,7.10
2017-11-06T04:23:00.514Z,7.12
2017-11-06T04:25:28.096Z,7.07
2017-11-06T04:27:55.649Z,6.90
2017-11-06T04:30:23.235Z,7.15
2017-11-06T04:32:50.807Z,6.78
2017-11-06T04:35:18.390Z,6.65
2017-11-06T04:37:46.717Z,6.62
2017-11-06T04:40:14.283Z,6.43
2017-11-06T04:42:41.869Z,6.18
2017-11-06T04:45:09.427Z,6.33
2017-11-06T04:47:36.991Z,6.93
2017-11-06T04:50:04.554Z,7.10
2017-11-06T04:52:32.121Z,6.78
2017-11-06T04:54:59.670Z,7.40
2017-11-06T04:57:27.221Z,6.87
2017-11-06T04:59:54.805Z,6.47
2017-11-06T05:02:22.341Z,7.07
2017-11-06T05:04:49.916Z,6.90
2017-11-06T05:07:17.485Z,6.90
2017-11-06T05:09:45.058Z,7.50
2017-11-06T05:12:13.365Z,6.72
2017-11-06T05:14:40.934Z,6.25
2017-11-06T05:17:08.487Z,6.78
2017-11-06T05:19:36.026Z,6.20
2017-11-06T05:22:03.566Z,8.50
2017-11-06T05:24:31.990Z,7.15
2017-11-06T05:26:59.571Z,6.55
2017-11-06T05:29:27.133Z,6.57
2017-11-06T05:31:54.692Z,7.03
2017-11-06T05:34:22.277Z,7.82
2017-11-06T05:36:49.850Z,7.00
2017-11-06T05:39:18.189Z,7.22
2017-11-06T05:41:45.754Z,10.15
2017-11-06T05:44:13.330Z,11.43
2017-11-06T05:46:40.904Z,12.50
2017-11-06T05:49:09.205Z,13.65
2017-11-06T05:51:36.750Z,11.15
2017-11-06T05:54:05.110Z,10.25
2017-11-06T05:56:32.675Z,8.73
2017-11-06T05:59:00.237Z,9.65
2017-11-06T06:01:28.569Z,8.85
2017-11-06T06:03:56.146Z,8.98
2017-11-06T06:06:23.710Z,10.38
2017-11-06T06:08:52.278Z,10.45
2017-11-06T06:11:19.846Z,11.60
2017-11-06T06:13:47.411Z,9.98
2017-11-06T06:16:14.968Z,9.30
2017-11-06T06:18:42.525Z,8.35
2017-11-06T06:21:10.123Z,8.25
2017-11-06T06:23:38.436Z,8.00
2017-11-06T06:26:06.016Z,8.82
2017-11-06T06:28:33.592Z,9.15
2017-11-06T06:31:01.154Z,8.82
2017-11-06T06:33:28.705Z,7.97
2017-11-06T06:35:56.262Z,7.72
2017-11-06T06:38:24.001Z,8.80
2017-11-06T06:40:51.566Z,7.95
2017-11-06T06:43:19.157Z,7.68
2017-11-06T06:45:46.740Z,7.50
2017-11-06T06:48:14.353Z,8.18
2017-11-06T06:50:41.905Z,7.95
2017-11-06T06:53:09.467Z,8.45
2017-11-06T06:55:37.026Z,8.80
2017-11-06T06:58:04.615Z,8.60
2017-11-06T07:00:32.178Z,9.43
2017-11-06T07:02:59.745Z,8.45
2017-11-06T07:05:28.246Z,9.00
2017-11-06T07:07:56.582Z,8.07
2017-11-06T07:10:24.142Z,7.72
2017-11-06T07:12:51.734Z,8.40
2017-11-06T07:15:19.281Z,8.10
2017-11-06T07:17:46.877Z,7.70
2017-11-06T07:20:15.174Z,8.02
2017-11-06T07:22:42.721Z,8.48
2017-11-06T07:25:11.051Z,7.82
2017-11-06T07:27:38.586Z,7.82
2017-11-06T07:30:06.152Z,7.65
2017-11-06T07:32:33.691Z,7.75
2017-11-06T07:35:01.249Z,8.18
2017-11-06T07:37:28.821Z,8.80
2017-11-06T07:39:56.368Z,8.60
2017-11-06T07:42:23.949Z,7.97
2017-11-06T07:44:51.499Z,8.63
2017-11-06T07:47:19.067Z,9.00
2017-11-06T07:49:46.610Z,8.60
2017-11-06T07:52:14.168Z,9.55
2017-11-06T07:54:41.725Z,10.02
2017-11-06T07:57:10.501Z,9.45
2017-11-06T07:59:38.833Z,10.30
2017-11-06T08:02:06.405Z,10.68
2017-11-06T08:04:33.984Z,12.52
2017-11-06T08:07:02.315Z,12.55
2017-11-06T08:09:30.783Z,11.23
2017-11-06T08:11:58.345Z,10.65
2017-11-06T08:14:25.908Z,10.48
2017-11-06T08:16:53.449Z,10.15
2017-11-06T08:19:24.566Z,10.70
2017-11-06T08:21:53.592Z,9.85
2017-11-06T08:24:22.248Z,9.20
2017-11-06T08:26:49.806Z,9.93
2017-11-06T08:29:17.350Z,10.20
2017-11-06T08:31:44.962Z,10.15
2017-11-06T08:34:13.302Z,10.65
2017-11-06T08:36:40.868Z,10.65
2017-11-06T08:39:08.569Z,11.15
2017-11-06T08:41:36.922Z,12.57
2017-11-06T08:44:04.494Z,11.48
2017-11-06T08:46:32.304Z,10.63
2017-11-06T08:48:59.972Z,10.68
2017-11-06T08:51:27.660Z,10.43
2017-11-06T08:53:55.231Z,10.30
2017-11-06T08:56:22.881Z,10.55
2017-11-06T08:58:50.452Z,11.55
2017-11-06T09:01:18.045Z,11.82
2017-11-06T09:03:46.551Z,12.52
2017-11-06T09:06:14.156Z,14.90
2017-11-06T09:08:41.739Z,14.55
2017-11-06T09:11:10.073Z,12.82
2017-11-06T09:13:37.653Z,12.65
2017-11-06T09:16:05.219Z,13.40
2017-11-06T09:18:32.794Z,13.75
2017-11-06T09:21:00.377Z,13.27
2017-11-06T09:23:27.961Z,11.93
2017-11-06T09:28:31.687Z,14.23
2017-11-06T09:30:59.248Z,13.50
2017-11-06T09:33:26.806Z,14.02
2017-11-06T09:35:54.369Z,13.70
2017-11-06T09:38:21.936Z,13.90
2017-11-06T09:40:49.479Z,15.63
2017-11-06T09:43:17.042Z,15.48
2017-11-06T09:45:44.624Z,14.90
2017-11-06T09:48:12.207Z,15.65
2017-11-06T09:50:39.791Z,16.10
2017-11-06T09:53:08.129Z,16.62
2017-11-06T09:55:35.684Z,15.13
2017-11-06T09:58:03.255Z,15.13
2017-11-06T10:00:30.848Z,16.73
2017-11-06T10:02:59.175Z,16.55
2017-11-06T10:05:26.730Z,15.60
2017-11-06T10:07:54.285Z,16.43
2017-11-06T10:10:21.839Z,16.30
2017-11-06T10:12:49.443Z,15.20
2017-11-06T10:15:17.017Z,16.20
2017-11-06T10:17:44.602Z,16.10
2017-11-06T10:20:13.005Z,17.43
2017-11-06T10:22:40.588Z,15.63
2017-11-06T10:25:08.160Z,16.50
2017-11-06T10:27:35.766Z,15.10
2017-11-06T10:30:04.077Z,14.20
2017-11-06T10:32:31.652Z,14.13
2017-11-06T10:34:59.221Z,13.67
2017-11-06T10:37:26.762Z,11.80
2017-11-06T10:39:54.337Z,12.47
2017-11-06T10:42:21.887Z,13.47
2017-11-06T10:44:49.450Z,12.80
2017-11-06T10:47:16.984Z,12.80
2017-11-06T10:49:44.593Z,11.80
2017-11-06T10:52:12.146Z,12.10
2017-11-06T10:54:39.725Z,11.60
2017-11-06T10:57:08.058Z,11.60
2017-11-06T10:59:35.672Z,10.90
2017-11-06T11:02:03.998Z,9.03
2017-11-06T11:04:31.537Z,9.50
2017-11-06T11:06:59.884Z,9.63
2017-11-06T11:09:28.247Z,10.37
2017-11-06T11:11:55.819Z,9.77
2017-11-06T11:14:24.142Z,10.70
2017-11-06T11:16:51.742Z,10.63
2017-11-06T11:19:19.332Z,10.30
2017-11-06T11:21:47.663Z,10.37
2017-11-06T11:24:15.256Z,11.17
2017-11-06T11:26:43.621Z,9.20
2017-11-06T11:29:11.181Z,9.10
2017-11-06T11:31:38.747Z,9.70
2017-11-06T11:34:07.303Z,9.47
2017-11-06T11:36:34.872Z,10.30
2017-11-06T11:39:03.774Z,9.57
2017-11-06T11:41:32.105Z,9.80
2017-11-06T11:43:59.716Z,9.37
2017-11-06T11:46:27.300Z,9.00
2017-11-06T11:48:55.659Z,9.47
2017-11-06T11:51:23.213Z,9.07
2017-11-06T11:53:50.811Z,8.10
2017-11-06T11:56:19.146Z,7.70
2017-11-06T11:58:46.694Z,8.77
2017-11-06T12:01:15.130Z,8.53
2017-11-06T12:03:42.708Z,7.93
2017-11-06T12:06:15.241Z,8.43
2017-11-06T12:08:43.572Z,6.60
2017-11-06T12:11:11.873Z,7.97
2017-11-06T12:13:39.434Z,8.07
2017-11-06T12:16:07.002Z,7.03
2017-11-06T12:18:34.540Z,7.67
2017-11-06T12:21:02.108Z,8.20
2017-11-06T12:23:29.823Z,7.87
2017-11-06T12:25:58.447Z,7.30
2017-11-06T12:28:26.040Z,7.37
2017-11-06T12:30:53.652Z,7.50
2017-11-06T12:33:21.232Z,7.90
2017-11-06T12:35:48.780Z,7.37
2017-11-06T12:38:16.365Z,7.77
2017-11-06T12:40:43.941Z,7.63
2017-11-06T12:43:11.505Z,7.17
2017-11-06T12:45:39.081Z,8.43
2017-11-06T12:48:07.966Z,7.67
2017-11-06T12:50:36.296Z,7.40
2017-11-06T12:53:03.870Z,8.03
2017-11-06T12:55:31.631Z,7.80
2017-11-06T12:57:59.182Z,8.33
2017-11-06T13:00:26.770Z,7.90
2017-11-06T13:02:54.361Z,8.90
2017-11-06T13:05:22.710Z,9.50
2017-11-06T13:07:50.253Z,9.70
2017-11-06T13:10:18.196Z,8.80
2017-11-06T13:12:45.863Z,8.50
2017-11-06T13:15:13.416Z,9.23
2017-11-06T13:17:41.009Z,10.30
2017-11-06T13:20:08.968Z,9.33
2017-11-06T13:22:36.529Z,8.70
2017-11-06T13:25:04.069Z,9.60
2017-11-06T13:27:31.654Z,9.10
2017-11-06T13:29:59.222Z,9.40
2017-11-06T13:32:26.801Z,9.03
2017-11-06T13:34:54.374Z,8.97
2017-11-06T13:37:22.841Z,8.10
2017-11-06T13:39:50.487Z,8.67
2017-11-06T13:42:18.073Z,7.90
2017-11-06T13:44:46.393Z,7.20
2017-11-06T13:47:14.102Z,8.00
2017-11-06T13:49:41.669Z,8.10
2017-11-06T13:52:09.213Z,8.17
2017-11-06T13:54:37.065Z,7.77
2017-11-06T13:57:04.651Z,7.60
2017-11-06T13:59:32.993Z,8.23
2017-11-06T14:02:00.561Z,7.40
2017-11-06T14:04:28.168Z,7.93
2017-11-06T14:06:56.497Z,7.20
2017-11-06T14:09:24.067Z,7.40
2017-11-06T14:11:51.650Z,7.70
2017-11-06T14:14:19.219Z,8.87
2017-11-06T14:16:47.560Z,7.70
2017-11-06T14:19:15.159Z,7.33
2017-11-06T14:21:43.486Z,6.60
2017-11-06T14:24:11.052Z,6.50
2017-11-06T14:26:39.381Z,6.67
2017-11-06T14:29:07.734Z,6.80
2017-11-06T14:31:35.344Z,7.20
2017-11-06T14:34:02.916Z,5.97
2017-11-06T14:36:30.853Z,6.73
2017-11-06T14:38:59.198Z,6.60
2017-11-06T14:41:26.819Z,6.93
2017-11-06T14:43:54.385Z,6.53
2017-11-06T14:46:21.971Z,5.80
2017-11-06T14:48:49.526Z,5.90
2017-11-06T14:51:17.086Z,5.60
2017-11-06T14:53:44.634Z,6.10
2017-11-06T14:56:12.201Z,6.20
2017-11-06T14:58:39.765Z,5.60
2017-11-06T15:01:07.378Z,5.87
2017-11-06T15:03:35.701Z,5.60
2017-11-06T15:06:03.267Z,5.77
2017-11-06T15:08:30.813Z,7.80
2017-11-06T15:10:58.396Z,5.23
2017-11-06T15:13:25.988Z,5.23
2017-11-06T15:15:54.321Z,5.47
2017-11-06T15:18:23.339Z,5.20
2017-11-06T15:20:50.926Z,6.10
2017-11-06T15:23:19.734Z,5.40
2017-11-06T15:25:47.861Z,5.40
2017-11-06T15:28:17.268Z,6.00
2017-11-06T15:30:45.540Z,5.10
2017-11-06T15:33:13.462Z,6.50
2017-11-06T15:35:41.421Z,6.20
2017-11-06T15:38:08.979Z,6.70
2017-11-06T15:40:36.522Z,7.13
2017-11-06T15:43:04.875Z,7.47
2017-11-06T15:45:32.433Z,7.17
2017-11-06T15:48:00.017Z,6.20
2017-11-06T15:50:28.334Z,6.97
2017-11-06T15:52:55.912Z,7.00
2017-11-06T15:55:23.513Z,7.17
2017-11-06T15:57:51.894Z,6.63
2017-11-06T16:00:20.268Z,9.13
2017-11-06T16:02:47.834Z,10.50
2017-11-06T16:05:16.149Z,8.83
2017-11-06T16:07:43.690Z,7.37
2017-11-06T16:10:11.291Z,7.70
2017-11-06T16:12:38.837Z,7.20
2017-11-06T16:15:06.402Z,7.57
2017-11-06T16:17:33.969Z,7.07
2017-11-06T16:20:01.564Z,7.20
2017-11-06T16:22:29.112Z,6.00
2017-11-06T16:24:56.664Z,6.23
2017-11-06T16:27:24.238Z,7.60
2017-11-06T16:29:51.805Z,6.13
2017-11-06T16:32:19.379Z,6.70
2017-11-06T16:34:47.690Z,6.60
2017-11-06T16:37:15.249Z,7.17
2017-11-06T16:39:42.806Z,7.43
2017-11-06T16:42:10.387Z,7.60
2017-11-06T16:44:37.976Z,8.47
2017-11-06T16:47:05.665Z,8.33
2017-11-06T16:49:34.007Z,9.17
2017-11-06T16:52:01.568Z,8.23
2017-11-06T16:54:29.144Z,8.23
2017-11-06T16:56:56.755Z,8.47
2017-11-06T16:59:24.327Z,7.77
2017-11-06T17:01:51.892Z,10.20
2017-11-06T17:04:19.496Z,7.93
2017-11-06T17:06:47.840Z,9.00
2017-11-06T17:09:16.370Z,9.67
2017-11-06T17:11:44.721Z,9.60
2017-11-06T17:14:12.299Z,9.50
2017-11-06T17:16:41.336Z,8.57
2017-11-06T17:19:08.906Z,8.17
2017-11-06T17:21:37.289Z,8.50
2017-11-06T17:24:05.992Z,8.63
2017-11-06T17:26:33.602Z,8.07
2017-11-06T17:29:01.243Z,9.97
2017-11-06T17:31:29.594Z,8.60
2017-11-06T17:33:57.184Z,11.03
2017-11-06T17:36:25.536Z,11.43
2017-11-06T17:38:53.128Z,13.07
2017-11-06T17:41:21.441Z,11.00
2017-11-06T17:43:49.010Z,9.70
2017-11-06T17:46:16.558Z,9.80
2017-11-06T17:48:44.137Z,9.50
2017-11-06T17:51:11.693Z,9.07
2017-11-06T17:53:39.413Z,8.43
2017-11-06T17:56:07.734Z,8.40
2017-11-06T17:58:35.298Z,8.13
2017-11-06T18:01:02.848Z,8.20
2017-11-06T18:03:30.426Z,8.90
2017-11-06T18:06:03.925Z,9.47
2017-11-06T18:08:44.156Z,9.40
2017-11-06T18:11:18.284Z,17.33
2017-11-06T18:13:46.645Z,16.57
2017-11-06T18:16:19.476Z,12.03
2017-11-06T18:18:50.573Z,9.47
2017-11-06T18:21:20.129Z,9.10
2017-11-06T18:23:47.685Z,9.13
2017-11-06T18:26:15.275Z,7.90
2017-11-06T18:28:44.214Z,9.03
2017-11-06T18:31:12.790Z,13.83
2017-11-06T18:33:41.173Z,14.03
2017-11-06T18:36:08.767Z,13.43
2017-11-06T18:38:36.342Z,14.03
2017-11-06T18:41:03.930Z,15.73
2017-11-06T18:43:31.499Z,14.40
2017-11-06T18:45:59.327Z,12.70
2017-11-06T18:48:27.697Z,13.47
2017-11-06T18:50:55.279Z,11.33
2017-11-06T18:53:36.715Z,10.07
2017-11-06T18:56:12.151Z,11.10
2017-11-06T18:58:42.178Z,11.97
2017-11-06T19:01:14.318Z,16.27
2017-11-06T19:03:41.951Z,18.30
2017-11-06T19:06:13.575Z,20.80
2017-11-06T19:08:43.513Z,19.73
2017-11-06T19:11:12.005Z,17.30
2017-11-06T19:13:57.590Z,14.30
2017-11-06T19:16:25.948Z,12.70
2017-11-06T19:18:53.562Z,11.27
2017-11-06T19:21:21.176Z,10.67
2017-11-06T19:23:48.810Z,10.63
2017-11-06T19:26:16.501Z,12.10
2017-11-06T19:28:44.270Z,10.67
2017-11-06T19:31:12.677Z,8.93
2017-11-06T19:33:40.253Z,8.73
2017-11-06T19:36:07.836Z,10.17
2017-11-06T19:38:35.405Z,11.50
2017-11-06T19:41:03.025Z,11.40
2017-11-06T19:43:30.715Z,10.10
2017-11-06T19:45:58.294Z,9.70
2017-11-06T19:48:25.880Z,9.00
2017-11-06T19:50:53.414Z,7.97
2017-11-06T19:53:21.124Z,7.10
2017-11-06T19:55:48.720Z,6.30
2017-11-06T19:58:16.279Z,7.30
2017-11-06T20:00:43.827Z,7.30
2017-11-06T20:03:11.634Z,23.27
2017-11-06T20:05:39.496Z,9.03
2017-11-06T20:08:07.378Z,9.77
2017-11-06T20:10:35.290Z,11.10
2017-11-06T20:13:03.910Z,11.70
2017-11-06T20:15:32.573Z,11.27
2017-11-06T20:18:00.452Z,10.00
2017-11-06T20:20:28.332Z,13.50
2017-11-06T20:22:58.570Z,14.30
2017-11-06T20:25:26.529Z,14.73
2017-11-06T20:27:55.194Z,18.00
2017-11-06T20:30:23.053Z,19.33
2017-11-06T20:32:50.964Z,18.10
2017-11-06T20:35:18.888Z,15.90
2017-11-06T20:37:46.805Z,16.90
2017-11-06T20:40:14.694Z,16.93
2017-11-06T20:42:42.602Z,15.60
2017-11-06T20:45:10.480Z,15.97
2017-11-06T20:47:39.498Z,16.67
2017-11-06T20:50:07.646Z,17.57
2017-11-06T20:52:36.405Z,18.02
2017-11-06T20:55:04.271Z,20.93
2017-11-06T20:57:31.851Z,22.50
2017-11-06T20:59:59.422Z,15.50
2017-11-06T21:02:27.009Z,13.27
2017-11-06T21:04:54.580Z,18.70
2017-11-06T21:07:22.919Z,16.20
2017-11-06T21:09:50.477Z,13.83
2017-11-06T21:12:18.021Z,14.13
2017-11-06T21:14:45.592Z,17.23
2017-11-06T21:17:13.150Z,18.20
2017-11-06T21:19:40.720Z,13.35
2017-11-06T21:22:08.305Z,12.90
2017-11-06T21:24:35.870Z,13.25
2017-11-06T21:27:03.453Z,13.13
2017-11-06T21:29:37.549Z,13.68
2017-11-06T21:32:05.915Z,14.00
2017-11-06T21:34:33.482Z,13.40
2017-11-06T21:37:01.214Z,13.57
2017-11-06T21:39:28.789Z,13.30
2017-11-06T21:41:56.350Z,14.20
2017-11-06T21:44:23.961Z,14.63
2017-11-06T21:46:51.522Z,14.23
2017-11-06T21:49:19.127Z,12.70
2017-11-06T21:51:46.692Z,12.90
2017-11-06T21:54:14.250Z,13.00
2017-11-06T21:56:41.834Z,12.20
2017-11-06T21:59:09.419Z,12.23
2017-11-06T22:01:36.985Z,11.98
2017-11-06T22:04:04.580Z,11.98
2017-11-06T22:06:32.138Z,11.27
2017-11-06T22:08:59.705Z,11.68
2017-11-06T22:11:27.311Z,10.20
2017-11-06T22:13:55.630Z,11.20
2017-11-06T22:16:23.201Z,10.77
2017-11-06T22:18:50.798Z,10.43
2017-11-06T22:21:18.374Z,10.47
2017-11-06T22:23:46.716Z,10.65
2017-11-06T22:26:14.318Z,10.38
2017-11-06T22:28:42.681Z,11.23
2017-11-06T22:31:11.031Z,13.40
2017-11-06T22:33:38.593Z,15.50
2017-11-06T22:36:06.174Z,13.18
2017-11-06T22:38:33.749Z,12.95
2017-11-06T22:41:02.089Z,12.90
2017-11-06T22:43:29.668Z,13.35
2017-11-06T22:45:57.238Z,12.93
2017-11-06T22:48:25.581Z,14.65
2017-11-06T22:50:53.158Z,14.73
2017-11-06T22:53:20.743Z,13.23
2017-11-06T22:55:49.090Z,14.50
2017-11-06T22:58:16.648Z,14.82
2017-11-06T23:00:44.207Z,14.10
2017-11-06T23:03:11.808Z,14.32
2017-11-06T23:05:40.154Z,13.32
2017-11-06T23:08:07.720Z,14.00
2017-11-06T23:10:35.337Z,13.82
2017-11-06T23:13:02.904Z,13.10
2017-11-06T23:15:30.482Z,13.05
2017-11-06T23:17:58.107Z,13.10
2017-11-06T23:20:25.694Z,12.37
2017-11-06T23:22:53.269Z,11.90
2017-11-06T23:25:21.618Z,12.25
2017-11-06T23:27:49.221Z,13.40
2017-11-06T23:30:16.811Z,13.98
2017-11-06T23:32:45.220Z,12.60
2017-11-06T23:35:12.845Z,12.27
2017-11-06T23:37:41.214Z,12.05
2017-11-06T23:40:08.771Z,11.45
2017-11-06T23:42:36.332Z,11.75
2017-11-06T23:45:03.884Z,11.57
2017-11-06T23:47:31.476Z,11.82
2017-11-06T23:49:59.830Z,12.20
2017-11-06T23:52:27.434Z,11.50
2017-11-06T23:54:55.010Z,11.75
2017-11-06T23:57:22.546Z,11.65
2017-11-06T23:59:50.130Z,11.50
